Time;durP1;ratioP1;P1;durP2;ratioP2;P2;SDS_P1;SDS_P2;PMS_P1;PMS_P2;Temp;Humidity;BMP_temperature;BMP_pressure;BME280_temperature;BME280_humidity;BME280_pressure;Samples;Min_cycle;Max_cycle;Signal;HPM_P1;HPM_P2
2023/10/15 00:00:12;;;;;;;1.40;0.73;;;20.50;47.70;;;;;;5126795;27;45357;-65
2023/10/15 00:02:41;;;;;;;0.70;0.70;;;20.50;47.80;;;;;;5126945;27;45263;-65
2023/10/15 00:05:09;;;;;;;1.50;0.70;;;20.50;47.70;;;;;;5127155;27;45257;-65
2023/10/15 00:07:36;;;;;;;0.90;0.70;;;20.50;47.80;;;;;;5126453;27;47526;-66
2023/10/15 00:10:03;;;;;;;1.77;0.80;;;20.50;47.80;;;;;;5126594;27;45384;-65
2023/10/15 00:12:31;;;;;;;0.90;0.45;;;20.50;47.70;;;;;;5126212;27;45241;-66
2023/10/15 00:14:57;;;;;;;1.75;0.60;;;20.40;47.60;;;;;;5126841;27;45156;-65
2023/10/15 00:17:27;;;;;;;2.55;0.80;;;20.40;47.70;;;;;;5127137;27;46391;-65
2023/10/15 00:19:55;;;;;;;1.75;0.65;;;20.40;47.80;;;;;;5129991;27;45309;-66
2023/10/15 00:22:21;;;;;;;1.13;0.60;;;20.40;47.70;;;;;;5129876;27;45391;-65
2023/10/15 00:24:48;;;;;;;1.02;0.80;;;20.40;47.80;;;;;;5130231;27;45195;-66
2023/10/15 00:27:17;;;;;;;1.20;0.90;;;20.40;47.80;;;;;;5129527;27;46647;-65
2023/10/15 00:29:43;;;;;;;2.30;0.68;;;20.40;47.80;;;;;;5130036;27;45398;-65
2023/10/15 00:32:12;;;;;;;1.63;0.57;;;20.40;47.70;;;;;;5129852;27;45406;-66
2023/10/15 00:34:40;;;;;;;0.98;0.73;;;20.40;47.80;;;;;;5130187;27;45433;-66
2023/10/15 00:37:07;;;;;;;0.88;0.70;;;20.40;47.80;;;;;;5129726;27;46386;-66
2023/10/15 00:39:41;;;;;;;1.40;0.77;;;20.40;47.70;;;;;;5129780;27;45380;-65
2023/10/15 00:42:08;;;;;;;2.05;0.52;;;20.30;47.60;;;;;;5129882;27;45379;-67
2023/10/15 00:44:35;;;;;;;0.95;0.57;;;20.30;47.70;;;;;;5130038;27;45394;-67
2023/10/15 00:47:03;;;;;;;0.70;0.70;;;20.30;47.70;;;;;;5129593;27;47330;-67
2023/10/15 00:49:33;;;;;;;0.88;0.60;;;20.30;47.70;;;;;;5129836;27;45232;-65
2023/10/15 00:52:04;;;;;;;1.63;0.65;;;20.30;47.70;;;;;;5129778;27;45296;-66
2023/10/15 00:54:33;;;;;;;0.82;0.63;;;20.30;47.60;;;;;;5129946;27;45302;-67
2023/10/15 00:57:23;;;;;;;1.35;0.63;;;20.30;47.70;;;;;;5129430;27;45776;-67
2023/10/15 00:59:48;;;;;;;0.82;0.55;;;20.20;47.60;;;;;;5129295;27;45330;-67
2023/10/15 01:02:21;;;;;;;1.35;0.65;;;20.20;47.70;;;;;;5129597;27;45302;-67
2023/10/15 01:04:50;;;;;;;2.42;0.70;;;20.20;47.60;;;;;;5129830;27;45340;-67
2023/10/15 01:07:32;;;;;;;1.70;0.80;;;20.20;47.60;;;;;;5129366;27;45247;-67
2023/10/15 01:10:00;;;;;;;1.05;0.50;;;20.20;47.70;;;;;;5129582;27;45301;-67
2023/10/15 01:12:32;;;;;;;1.67;0.60;;;20.20;47.70;;;;;;5129677;27;45226;-67
2023/10/15 01:14:59;;;;;;;0.63;0.47;;;20.20;47.70;;;;;;5129633;27;45209;-67
2023/10/15 01:17:36;;;;;;;0.73;0.70;;;20.20;47.70;;;;;;5129271;27;46728;-67
2023/10/15 01:20:07;;;;;;;0.65;0.57;;;20.20;47.70;;;;;;5129291;27;45316;-67
2023/10/15 01:22:39;;;;;;;1.85;0.80;;;20.10;47.70;;;;;;5129252;27;45351;-66
2023/10/15 01:25:18;;;;;;;1.35;0.50;;;20.10;47.70;;;;;;5129507;27;45274;-67
2023/10/15 01:27:45;;;;;;;0.68;0.55;;;20.10;47.60;;;;;;5129095;27;45255;-67
2023/10/15 01:30:17;;;;;;;1.60;0.70;;;20.10;47.60;;;;;;5127955;27;45263;-67
2023/10/15 01:32:45;;;;;;;0.93;0.70;;;20.10;47.60;;;;;;5128961;27;45255;-67
2023/10/15 01:35:14;;;;;;;0.85;0.70;;;20.10;47.60;;;;;;5129179;27;45431;-67
2023/10/15 01:37:56;;;;;;;1.15;0.50;;;20.10;47.60;;;;;;5128320;27;45295;-67
2023/10/15 01:40:36;;;;;;;0.88;0.73;;;20.10;47.60;;;;;;5128642;27;46551;-67
2023/10/15 01:43:06;;;;;;;0.93;0.45;;;20.10;47.60;;;;;;5129009;27;45323;-67
2023/10/15 01:45:38;;;;;;;0.85;0.63;;;20.10;47.60;;;;;;5128604;27;45306;-66
2023/10/15 01:48:06;;;;;;;1.30;0.55;;;20.00;47.60;;;;;;5128196;27;46378;-67
2023/10/15 01:50:41;;;;;;;1.17;0.90;;;20.00;47.60;;;;;;5128821;27;45349;-67
2023/10/15 01:53:08;;;;;;;1.15;0.82;;;20.00;47.50;;;;;;5128862;27;45279;-67
2023/10/15 01:55:36;;;;;;;1.15;0.52;;;20.00;47.60;;;;;;5128706;27;45410;-67
2023/10/15 01:58:04;;;;;;;1.25;0.80;;;20.00;47.60;;;;;;5128603;27;46811;-67
2023/10/15 02:00:43;;;;;;;1.00;0.60;;;20.00;47.60;;;;;;5128604;27;45325;-67
2023/10/15 02:03:10;;;;;;;1.08;0.50;;;20.00;47.70;;;;;;5128654;27;45294;-66
2023/10/15 02:05:41;;;;;;;1.13;0.90;;;20.00;47.70;;;;;;5128679;27;45555;-67
2023/10/15 02:08:09;;;;;;;0.98;0.50;;;20.00;47.70;;;;;;5128430;27;45355;-67
2023/10/15 02:10:39;;;;;;;0.75;0.60;;;20.00;47.70;;;;;;5128357;27;45462;-67
2023/10/15 02:13:08;;;;;;;0.90;0.70;;;20.00;47.60;;;;;;5128496;27;45263;-66
2023/10/15 02:15:37;;;;;;;1.15;0.50;;;20.00;47.70;;;;;;5128696;27;45381;-67
2023/10/15 02:18:05;;;;;;;0.52;0.47;;;20.00;47.60;;;;;;5128077;27;45287;-67
2023/10/15 02:20:43;;;;;;;0.73;0.50;;;19.90;47.50;;;;;;5127995;27;45292;-66
2023/10/15 02:23:10;;;;;;;0.43;0.43;;;19.90;47.50;;;;;;5128406;27;45384;-67
2023/10/15 02:25:45;;;;;;;1.17;0.60;;;19.90;47.50;;;;;;5128821;27;45488;-67
2023/10/15 02:28:16;;;;;;;1.10;0.68;;;19.90;47.50;;;;;;5128550;27;46360;-67
2023/10/15 02:30:46;;;;;;;0.73;0.50;;;19.90;47.50;;;;;;5128188;27;45271;-67
2023/10/15 02:33:16;;;;;;;2.00;0.80;;;19.90;47.60;;;;;;5127917;27;45479;-67
2023/10/15 02:35:45;;;;;;;1.75;0.60;;;19.90;47.60;;;;;;5128434;27;45256;-67
2023/10/15 02:38:13;;;;;;;1.13;0.57;;;19.90;47.50;;;;;;5127843;27;47050;-67
2023/10/15 02:43:25;;;;;;;0.60;0.60;;;19.90;47.60;;;;;;5125025;27;45493;-67
2023/10/15 02:45:51;;;;;;;0.88;0.70;;;19.80;48.20;;;;;;5128019;27;45358;-67
2023/10/15 02:48:20;;;;;;;0.40;0.40;;;19.80;47.60;;;;;;5127676;27;46396;-67
2023/10/15 02:50:58;;;;;;;0.70;0.40;;;19.80;47.60;;;;;;5127817;27;45442;-67
2023/10/15 02:53:27;;;;;;;0.70;0.60;;;19.80;47.60;;;;;;5127936;27;45317;-67
2023/10/15 02:55:58;;;;;;;1.05;0.50;;;19.80;47.60;;;;;;5128080;27;45615;-67
2023/10/15 02:58:31;;;;;;;1.23;0.50;;;19.80;47.60;;;;;;5127633;27;46521;-67
2023/10/15 03:01:06;;;;;;;0.50;0.50;;;19.80;47.50;;;;;;5127667;27;45353;-67
2023/10/15 03:03:34;;;;;;;1.38;0.55;;;19.80;47.60;;;;;;5127878;27;45372;-67
2023/10/15 03:06:02;;;;;;;2.63;0.63;;;19.80;47.60;;;;;;5127294;27;45377;-67
2023/10/15 03:08:33;;;;;;;0.65;0.57;;;19.70;47.50;;;;;;5127486;27;46362;-67
2023/10/15 03:11:12;;;;;;;1.20;0.52;;;19.70;47.50;;;;;;5127582;27;45356;-67
2023/10/15 03:13:49;;;;;;;0.88;0.60;;;19.70;47.50;;;;;;5127696;27;45698;-67
2023/10/15 03:16:18;;;;;;;1.75;0.70;;;19.70;47.50;;;;;;5127985;27;45380;-67
2023/10/15 03:18:48;;;;;;;1.70;0.73;;;19.70;47.50;;;;;;5127275;27;46971;-67
2023/10/15 03:21:18;;;;;;;0.52;0.50;;;19.70;47.50;;;;;;5127570;27;45468;-67
2023/10/15 03:23:46;;;;;;;1.00;0.70;;;19.70;47.60;;;;;;5127566;27;45314;-67
2023/10/15 03:26:17;;;;;;;1.17;0.52;;;19.70;47.50;;;;;;5127416;27;45498;-67
2023/10/15 03:28:45;;;;;;;0.85;0.70;;;19.70;47.60;;;;;;5127196;27;45569;-67
2023/10/15 03:31:15;;;;;;;1.00;0.50;;;19.70;47.60;;;;;;5127326;27;45318;-67
2023/10/15 03:33:58;;;;;;;0.55;0.50;;;19.70;47.60;;;;;;5126906;27;45224;-67
2023/10/15 03:36:26;;;;;;;0.73;0.60;;;19.60;47.50;;;;;;5127303;27;45348;-67
2023/10/15 03:38:54;;;;;;;1.98;0.60;;;19.60;47.50;;;;;;5127140;27;45739;-67
2023/10/15 03:41:29;;;;;;;0.47;0.47;;;19.70;47.60;;;;;;5127519;27;45333;-67
2023/10/15 03:44:03;;;;;;;1.02;0.40;;;19.60;47.50;;;;;;5127250;27;45196;-67
2023/10/15 03:46:33;;;;;;;1.45;0.77;;;19.60;47.60;;;;;;5127341;27;45397;-67
2023/10/15 03:49:04;;;;;;;1.27;0.85;;;19.60;47.50;;;;;;5126909;27;45367;-67
2023/10/15 03:51:31;;;;;;;0.77;0.63;;;19.60;47.60;;;;;;5127202;27;45170;-67
2023/10/15 03:54:06;;;;;;;0.52;0.30;;;19.60;47.50;;;;;;5130458;27;45360;-67
2023/10/15 03:56:35;;;;;;;0.50;0.50;;;19.60;47.50;;;;;;5130633;27;45332;-66
2023/10/15 03:59:02;;;;;;;0.77;0.60;;;19.60;47.60;;;;;;5130526;27;46389;-67
2023/10/15 04:01:30;;;;;;;0.73;0.52;;;19.60;47.50;;;;;;5130365;27;45291;-67
2023/10/15 04:04:01;;;;;;;2.25;0.60;;;19.60;47.60;;;;;;5130682;27;45102;-66
2023/10/15 04:06:27;;;;;;;0.57;0.50;;;19.60;47.60;;;;;;5130526;27;45377;-67
2023/10/15 04:09:09;;;;;;;0.60;0.60;;;19.50;47.50;;;;;;5130285;27;45462;-67
2023/10/15 04:11:43;;;;;;;0.75;0.52;;;19.50;47.50;;;;;;5130293;27;45364;-67
2023/10/15 04:14:17;;;;;;;0.50;0.50;;;19.50;47.50;;;;;;5130691;27;45468;-67
2023/10/15 04:16:44;;;;;;;0.52;0.52;;;19.50;47.50;;;;;;5130379;27;45301;-67
2023/10/15 04:19:11;;;;;;;0.57;0.57;;;19.50;47.50;;;;;;5130139;27;46352;-67
2023/10/15 04:21:39;;;;;;;1.88;0.60;;;19.50;47.50;;;;;;5130219;27;45373;-67
2023/10/15 04:24:07;;;;;;;1.40;0.70;;;19.50;47.50;;;;;;5130442;27;45121;-67
2023/10/15 04:26:35;;;;;;;0.40;0.40;;;19.50;47.50;;;;;;5129849;27;45312;-67
2023/10/15 04:29:16;;;;;;;0.93;0.60;;;19.50;47.50;;;;;;5129904;27;46632;-67
2023/10/15 04:31:44;;;;;;;0.63;0.52;;;19.50;47.60;;;;;;5129463;27;45294;-67
2023/10/15 04:34:16;;;;;;;1.38;0.70;;;19.50;47.60;;;;;;5130151;27;45360;-67
2023/10/15 04:36:43;;;;;;;2.17;0.68;;;19.50;47.60;;;;;;5130394;27;45631;-67
2023/10/15 04:39:12;;;;;;;0.52;0.52;;;19.40;47.60;;;;;;5130051;27;45385;-66
2023/10/15 04:41:39;;;;;;;0.40;0.40;;;19.40;47.70;;;;;;5129952;27;45364;-67
2023/10/15 04:44:11;;;;;;;0.57;0.57;;;19.40;47.60;;;;;;5130045;27;45381;-67
2023/10/15 04:46:43;;;;;;;0.88;0.65;;;19.40;47.70;;;;;;5130121;27;45513;-67
2023/10/15 04:49:10;;;;;;;0.95;0.40;;;19.40;47.60;;;;;;5129737;27;45579;-67
2023/10/15 04:51:42;;;;;;;1.25;0.55;;;19.40;47.60;;;;;;5129700;27;45328;-67
2023/10/15 04:54:09;;;;;;;0.65;0.50;;;19.40;47.70;;;;;;5130137;27;45267;-67
2023/10/15 04:56:36;;;;;;;0.52;0.52;;;19.40;47.70;;;;;;5129902;27;45507;-67
2023/10/15 04:59:04;;;;;;;1.00;0.60;;;19.40;47.70;;;;;;5129466;27;46471;-67
2023/10/15 05:01:33;;;;;;;0.68;0.57;;;19.40;47.70;;;;;;5129560;27;45349;-67
2023/10/15 05:04:00;;;;;;;1.13;0.50;;;19.30;47.70;;;;;;5129841;27;45376;-67
2023/10/15 05:06:27;;;;;;;1.00;0.40;;;19.30;47.70;;;;;;5126883;27;45368;-67
2023/10/15 05:08:53;;;;;;;0.52;0.52;;;19.40;47.90;;;;;;5129149;27;45354;-67
2023/10/15 05:11:23;;;;;;;0.73;0.50;;;19.40;47.70;;;;;;5129774;27;45404;-67
2023/10/15 05:13:50;;;;;;;0.70;0.70;;;19.30;47.70;;;;;;5129536;27;45264;-67
2023/10/15 05:16:17;;;;;;;0.82;0.50;;;19.30;47.70;;;;;;5129667;27;45462;-67
2023/10/15 05:18:47;;;;;;;0.50;0.50;;;19.30;47.60;;;;;;5129405;27;46654;-68
2023/10/15 05:21:14;;;;;;;1.23;0.80;;;19.30;47.70;;;;;;5129170;27;45332;-67
2023/10/15 05:23:41;;;;;;;0.50;0.50;;;19.30;47.70;;;;;;5128958;27;45261;-66
2023/10/15 05:26:07;;;;;;;0.40;0.40;;;19.30;47.80;;;;;;5129488;27;45271;-67
2023/10/15 05:28:34;;;;;;;0.68;0.60;;;19.30;47.80;;;;;;5128999;27;45470;-67
2023/10/15 05:31:01;;;;;;;0.77;0.60;;;19.30;47.80;;;;;;5129285;27;45256;-67
2023/10/15 05:33:29;;;;;;;1.25;0.70;;;19.30;47.80;;;;;;5128914;27;45397;-66
2023/10/15 05:35:57;;;;;;;0.60;0.60;;;19.30;47.80;;;;;;5128903;27;45251;-66
2023/10/15 05:38:26;;;;;;;0.40;0.40;;;19.30;47.90;;;;;;5128844;27;47284;-67
2023/10/15 05:40:57;;;;;;;1.80;0.95;;;19.30;47.80;;;;;;5128764;27;45486;-66
2023/10/15 05:43:23;;;;;;;0.63;0.50;;;19.30;47.80;;;;;;5129221;27;45302;-66
2023/10/15 05:45:51;;;;;;;0.93;0.73;;;19.30;47.80;;;;;;5128864;27;45406;-66
2023/10/15 05:48:18;;;;;;;0.63;0.60;;;19.30;47.80;;;;;;5128532;27;46667;-66
2023/10/15 05:50:48;;;;;;;1.48;0.60;;;19.20;47.80;;;;;;5128838;27;45394;-66
2023/10/15 05:53:17;;;;;;;1.75;0.57;;;19.20;47.90;;;;;;5128776;27;45283;-66
2023/10/15 05:55:45;;;;;;;0.60;0.60;;;19.20;47.90;;;;;;5128626;27;45296;-66
2023/10/15 05:58:11;;;;;;;1.20;0.40;;;19.30;47.90;;;;;;5128343;27;47279;-66
2023/10/15 06:00:40;;;;;;;1.63;0.43;;;19.20;47.90;;;;;;5128500;27;45357;-67
2023/10/15 06:03:07;;;;;;;0.52;0.52;;;19.20;47.90;;;;;;5128369;27;45283;-66
2023/10/15 06:05:34;;;;;;;0.65;0.65;;;19.20;47.90;;;;;;5128632;27;45307;-66
2023/10/15 06:08:01;;;;;;;0.60;0.43;;;19.20;47.90;;;;;;5125426;27;45337;-66
2023/10/15 06:10:32;;;;;;;0.50;0.50;;;19.20;48.10;;;;;;5127879;27;45392;-66
2023/10/15 06:12:59;;;;;;;1.02;0.45;;;19.20;48.10;;;;;;5128231;27;45334;-66
2023/10/15 06:15:26;;;;;;;0.50;0.50;;;19.20;47.90;;;;;;5127977;27;45300;-66
2023/10/15 06:17:53;;;;;;;0.73;0.50;;;19.10;48.00;;;;;;5128074;27;45368;-67
2023/10/15 06:20:20;;;;;;;0.80;0.60;;;19.10;48.00;;;;;;5128564;27;45301;-66
2023/10/15 06:22:48;;;;;;;0.77;0.50;;;19.10;48.00;;;;;;5128534;27;45179;-67
2023/10/15 06:25:16;;;;;;;0.40;0.40;;;19.10;47.90;;;;;;5128372;27;45376;-66
2023/10/15 06:27:44;;;;;;;0.90;0.60;;;19.10;48.10;;;;;;5128061;27;45775;-66
2023/10/15 06:30:14;;;;;;;1.08;0.60;;;19.10;47.90;;;;;;5128036;27;45286;-66
2023/10/15 06:32:41;;;;;;;0.75;0.25;;;19.10;48.00;;;;;;5127721;27;45267;-66
2023/10/15 06:35:09;;;;;;;0.95;0.70;;;19.10;48.00;;;;;;5128543;27;45298;-66
2023/10/15 06:37:38;;;;;;;0.35;0.35;;;19.10;48.00;;;;;;5128120;27;47406;-66
2023/10/15 06:40:08;;;;;;;0.70;0.70;;;19.10;48.00;;;;;;5127819;27;45337;-66
2023/10/15 06:42:35;;;;;;;0.65;0.52;;;19.10;48.10;;;;;;5127936;27;45352;-66
2023/10/15 06:45:06;;;;;;;0.93;0.65;;;19.10;48.20;;;;;;5128274;27;45319;-66
2023/10/15 06:47:33;;;;;;;1.42;0.70;;;19.10;48.20;;;;;;5127774;27;45505;-66
2023/10/15 06:50:00;;;;;;;0.43;0.40;;;19.10;48.20;;;;;;5127900;27;45384;-67
2023/10/15 06:52:27;;;;;;;0.57;0.52;;;19.10;48.20;;;;;;5127997;27;45380;-66
2023/10/15 06:54:54;;;;;;;0.70;0.40;;;19.10;48.20;;;;;;5127787;27;45357;-67
2023/10/15 06:57:21;;;;;;;1.15;0.55;;;19.10;48.20;;;;;;5127219;27;46189;-66
2023/10/15 06:59:50;;;;;;;1.08;0.60;;;19.10;48.20;;;;;;5127605;27;45344;-66
2023/10/15 07:02:18;;;;;;;1.52;0.47;;;19.10;48.30;;;;;;5127632;27;45161;-66
2023/10/15 07:04:45;;;;;;;0.75;0.50;;;19.10;48.20;;;;;;5127865;27;45515;-67
2023/10/15 07:07:11;;;;;;;1.88;0.60;;;19.00;48.20;;;;;;5127246;27;45318;-66
2023/10/15 07:09:40;;;;;;;0.50;0.50;;;19.00;48.30;;;;;;5127401;27;45372;-66
2023/10/15 07:12:08;;;;;;;1.08;0.52;;;19.10;48.30;;;;;;5127566;27;45510;-66
2023/10/15 07:14:35;;;;;;;0.98;0.50;;;19.10;48.30;;;;;;5127758;27;45325;-66
2023/10/15 07:17:03;;;;;;;1.00;0.38;;;19.00;48.20;;;;;;5127142;27;45254;-66
2023/10/15 07:19:31;;;;;;;0.57;0.50;;;19.00;48.10;;;;;;5127181;27;45248;-66
2023/10/15 07:21:59;;;;;;;0.50;0.50;;;19.10;48.20;;;;;;5127608;27;45280;-66
2023/10/15 07:24:26;;;;;;;0.98;0.40;;;19.10;48.20;;;;;;5127935;27;45224;-66
2023/10/15 07:26:53;;;;;;;1.20;0.52;;;19.10;48.20;;;;;;5123055;27;46454;-66
2023/10/15 07:29:21;;;;;;;1.02;0.43;;;19.10;48.20;;;;;;5121611;27;45460;-66
2023/10/15 07:31:48;;;;;;;0.40;0.40;;;19.10;48.20;;;;;;5118244;27;45220;-66
2023/10/15 07:34:16;;;;;;;1.15;0.63;;;19.00;48.20;;;;;;5110533;27;45334;-66
2023/10/15 07:36:45;;;;;;;1.08;0.60;;;19.00;48.20;;;;;;5110427;27;47657;-66
2023/10/15 07:39:12;;;;;;;0.70;0.60;;;19.10;48.30;;;;;;5110002;27;45437;-66
2023/10/15 07:41:39;;;;;;;0.50;0.50;;;19.10;48.30;;;;;;5110420;27;45176;-66
2023/10/15 07:44:07;;;;;;;0.70;0.50;;;19.10;48.30;;;;;;5110043;27;45253;-66
2023/10/15 07:46:34;;;;;;;1.45;0.55;;;19.10;48.30;;;;;;5109531;27;45323;-66
2023/10/15 07:49:02;;;;;;;1.02;0.70;;;19.10;48.40;;;;;;5109835;27;45412;-66
2023/10/15 07:51:29;;;;;;;2.28;0.63;;;19.00;48.40;;;;;;5109925;27;45127;-66
2023/10/15 07:53:58;;;;;;;1.02;0.40;;;19.00;48.30;;;;;;5110125;27;45301;-66
2023/10/15 07:56:24;;;;;;;0.50;0.50;;;19.00;48.30;;;;;;5109464;27;45429;-66
2023/10/15 07:58:51;;;;;;;1.15;0.63;;;19.00;48.30;;;;;;5109676;27;45256;-66
2023/10/15 08:01:18;;;;;;;1.00;0.60;;;19.00;48.50;;;;;;5109835;27;45311;-67
2023/10/15 08:03:45;;;;;;;0.57;0.57;;;19.00;48.50;;;;;;5110111;27;45479;-66
2023/10/15 08:06:12;;;;;;;1.05;0.75;;;19.00;48.40;;;;;;5109294;27;46363;-67
2023/10/15 08:08:39;;;;;;;0.68;0.60;;;19.00;48.60;;;;;;5109420;27;45409;-67
2023/10/15 08:11:07;;;;;;;0.55;0.55;;;19.00;48.50;;;;;;5109495;27;45349;-66
2023/10/15 08:13:34;;;;;;;0.50;0.50;;;19.00;48.50;;;;;;5109672;27;45309;-66
2023/10/15 08:16:01;;;;;;;0.68;0.68;;;19.00;48.40;;;;;;5109222;27;46650;-67
2023/10/15 08:18:27;;;;;;;0.75;0.68;;;19.00;48.60;;;;;;5109256;27;45269;-67
2023/10/15 08:20:54;;;;;;;3.75;1.20;;;19.00;48.50;;;;;;5109544;27;45261;-67
2023/10/15 08:23:21;;;;;;;1.80;0.70;;;19.00;48.60;;;;;;5109889;27;45372;-67
2023/10/15 08:25:49;;;;;;;1.50;0.70;;;19.00;48.50;;;;;;5109105;27;45321;-67
2023/10/15 08:28:18;;;;;;;0.68;0.68;;;19.10;48.40;;;;;;5109148;27;45600;-68
2023/10/15 08:30:44;;;;;;;2.53;0.60;;;19.10;48.50;;;;;;5129814;27;45402;-66
2023/10/15 08:33:12;;;;;;;3.15;0.60;;;19.10;48.40;;;;;;5130038;27;45381;-67
2023/10/15 08:35:40;;;;;;;1.30;0.80;;;19.20;48.30;;;;;;5129398;27;47303;-67
2023/10/15 08:38:07;;;;;;;0.63;0.63;;;19.20;48.20;;;;;;5129590;27;45313;-67
2023/10/15 08:40:36;;;;;;;3.83;0.52;;;19.20;48.20;;;;;;5129831;27;45259;-66
2023/10/15 08:43:08;;;;;;;1.33;0.50;;;19.20;48.00;;;;;;5130451;27;45114;-66
2023/10/15 08:45:36;;;;;;;6.15;0.82;;;19.20;48.20;;;;;;5129636;27;46660;-66
2023/10/15 08:48:05;;;;;;;0.50;0.50;;;19.20;48.10;;;;;;5130496;27;45243;-67
2023/10/15 08:50:32;;;;;;;4.63;0.90;;;19.30;48.10;;;;;;5130733;27;45247;-67
2023/10/15 08:52:59;;;;;;;0.80;0.60;;;19.30;48.10;;;;;;5130561;27;45449;-67
2023/10/15 08:55:26;;;;;;;0.75;0.70;;;19.30;48.10;;;;;;5129500;27;45480;-67
2023/10/15 08:57:56;;;;;;;1.50;0.68;;;19.30;48.10;;;;;;5129530;27;45414;-66
2023/10/15 09:00:27;;;;;;;2.13;0.80;;;19.30;48.70;;;;;;5130800;27;45414;-67
2023/10/15 09:02:56;;;;;;;2.78;0.80;;;19.30;48.00;;;;;;5130983;27;45317;-66
2023/10/15 09:05:23;;;;;;;6.53;1.30;;;19.40;48.50;;;;;;5129859;27;47024;-66
2023/10/15 09:07:50;;;;;;;1.60;0.85;;;19.40;48.50;;;;;;5129355;27;45405;-67
2023/10/15 09:10:18;;;;;;;10.73;1.60;;;19.50;48.70;;;;;;5131124;27;45324;-66
2023/10/15 09:12:45;;;;;;;2.95;1.10;;;19.60;48.90;;;;;;5131934;27;45616;-69
2023/10/15 09:15:16;;;;;;;3.67;0.90;;;19.60;48.60;;;;;;5131192;27;46390;-68
2023/10/15 09:17:49;;;;;;;5.32;1.05;;;19.70;48.80;;;;;;5129700;27;45245;-68
2023/10/15 09:20:26;;;;;;;6.65;1.30;;;19.80;48.80;;;;;;5129457;27;45304;-70
2023/10/15 09:22:53;;;;;;;13.63;1.45;;;19.80;48.40;;;;;;5129943;27;45357;-71
2023/10/15 09:25:20;;;;;;;3.28;1.25;;;20.00;48.70;;;;;;5127532;27;45486;-68
2023/10/15 09:27:52;;;;;;;8.68;1.10;;;20.00;48.50;;;;;;5129247;27;45305;-72
2023/10/15 09:30:22;;;;;;;2.20;1.23;;;20.10;48.60;;;;;;5129331;27;45346;-72
2023/10/15 09:32:49;;;;;;;3.17;1.23;;;20.10;48.10;;;;;;5129518;27;45396;-70
2023/10/15 09:35:17;;;;;;;5.82;1.55;;;20.10;48.20;;;;;;5129804;27;46731;-74
2023/10/15 09:37:45;;;;;;;5.35;1.30;;;20.20;48.30;;;;;;5129309;27;45330;-68
2023/10/15 09:40:19;;;;;;;6.63;1.20;;;20.20;48.40;;;;;;5129789;27;45266;-69
2023/10/15 09:42:46;;;;;;;6.72;1.40;;;20.30;48.00;;;;;;5129439;27;45422;-69
2023/10/15 09:45:18;;;;;;;2.17;1.05;;;20.30;47.70;;;;;;5128849;27;47435;-68
2023/10/15 09:47:48;;;;;;;10.57;1.35;;;20.40;47.90;;;;;;5129159;27;45359;-69
2023/10/15 09:50:19;;;;;;;2.83;1.30;;;20.40;47.70;;;;;;5128195;27;45566;-71
2023/10/15 09:52:54;;;;;;;10.68;1.20;;;20.50;47.70;;;;;;5129204;27;45279;-69
2023/10/15 09:55:23;;;;;;;5.78;1.10;;;20.50;47.70;;;;;;5128596;27;45329;-72
2023/10/15 09:57:53;;;;;;;7.25;1.42;;;20.60;47.70;;;;;;5128756;27;45336;-71
2023/10/15 10:00:26;;;;;;;2.72;1.02;;;20.70;47.60;;;;;;5128904;27;45314;-68
2023/10/15 10:03:08;;;;;;;2.83;0.98;;;20.70;47.40;;;;;;5129064;27;45508;-69
2023/10/15 10:05:44;;;;;;;2.92;1.02;;;20.70;47.20;;;;;;5128311;27;45679;-68
2023/10/15 10:08:16;;;;;;;3.33;1.10;;;20.70;47.20;;;;;;5128303;27;45369;-68
2023/10/15 10:11:10;;;;;;;1.83;0.88;;;20.70;47.10;;;;;;5128346;27;45297;-67
2023/10/15 10:14:03;;;;;;;3.28;0.82;;;20.80;47.10;;;;;;5128528;27;45302;-70
2023/10/15 10:16:30;;;;;;;3.72;0.98;;;20.80;47.00;;;;;;5128040;27;45414;-71
2023/10/15 10:18:57;;;;;;;4.30;1.20;;;20.80;47.00;;;;;;5128425;27;45309;-68
2023/10/15 10:21:30;;;;;;;3.95;0.90;;;20.90;47.40;;;;;;5128425;27;45377;-68
2023/10/15 10:23:58;;;;;;;4.78;0.75;;;21.00;47.40;;;;;;5128587;27;45285;-70
2023/10/15 10:26:28;;;;;;;5.90;1.45;;;21.10;47.10;;;;;;5127810;27;45322;-68
2023/10/15 10:28:56;;;;;;;3.35;1.08;;;21.20;46.90;;;;;;5128222;27;45269;-69
2023/10/15 10:31:23;;;;;;;6.20;0.88;;;21.30;46.70;;;;;;5128261;27;45349;-69
2023/10/15 10:33:53;;;;;;;5.43;1.10;;;21.30;46.50;;;;;;5128206;27;45387;-68
2023/10/15 10:36:21;;;;;;;4.78;1.05;;;21.40;46.10;;;;;;5127898;27;46369;-69
2023/10/15 10:38:57;;;;;;;7.07;1.48;;;21.50;46.10;;;;;;5127941;27;45350;-68
2023/10/15 10:41:34;;;;;;;3.15;0.82;;;21.40;46.20;;;;;;5128087;27;45311;-70
2023/10/15 10:44:01;;;;;;;2.45;0.90;;;21.30;46.20;;;;;;5128194;27;45445;-69
2023/10/15 10:46:27;;;;;;;2.88;1.15;;;21.20;46.50;;;;;;5127733;27;46891;-67
2023/10/15 10:49:04;;;;;;;6.40;1.00;;;21.20;46.60;;;;;;5128132;27;45275;-71
2023/10/15 10:51:33;;;;;;;7.53;1.20;;;21.10;46.50;;;;;;5128039;27;45235;-70
2023/10/15 10:54:26;;;;;;;6.50;1.25;;;21.10;46.40;;;;;;5128003;27;45357;-66
2023/10/15 10:57:07;;;;;;;2.55;0.98;;;21.00;46.50;;;;;;5127730;27;46353;-70
2023/10/15 10:59:33;;;;;;;2.05;0.75;;;21.00;46.60;;;;;;5127910;27;45451;-69
2023/10/15 11:02:00;;;;;;;6.60;0.88;;;21.00;46.60;;;;;;5127833;27;45341;-71
2023/10/15 11:04:27;;;;;;;3.08;0.80;;;21.00;46.60;;;;;;5128033;27;45546;-71
2023/10/15 11:06:54;;;;;;;0.73;0.73;;;21.00;46.60;;;;;;5127613;27;45298;-70
2023/10/15 11:09:21;;;;;;;4.80;1.10;;;21.00;46.50;;;;;;5127716;27;45365;-70
2023/10/15 11:11:50;;;;;;;6.50;1.13;;;21.10;46.40;;;;;;5127058;27;45344;-70
2023/10/15 11:14:17;;;;;;;2.58;1.13;;;21.10;46.30;;;;;;5127973;27;45389;-70
2023/10/15 11:16:44;;;;;;;4.82;1.30;;;21.10;46.30;;;;;;5127552;27;46392;-71
2023/10/15 11:19:17;;;;;;;4.45;0.95;;;21.20;46.30;;;;;;5127854;27;45456;-71
2023/10/15 11:21:44;;;;;;;1.88;1.20;;;21.20;46.10;;;;;;5127898;27;45242;-73
2023/10/15 11:24:10;;;;;;;3.00;1.20;;;21.20;46.00;;;;;;5127728;27;45228;-69
2023/10/15 11:26:41;;;;;;;5.00;1.02;;;21.20;46.10;;;;;;5127521;27;46795;-70
2023/10/15 11:29:10;;;;;;;0.82;0.80;;;21.40;45.70;;;;;;5127855;27;45349;-69
2023/10/15 11:31:37;;;;;;;1.05;0.90;;;21.50;45.10;;;;;;5127440;27;45280;-70
2023/10/15 11:34:05;;;;;;;2.42;0.80;;;21.60;45.00;;;;;;5127538;27;45355;-70
2023/10/15 11:36:35;;;;;;;3.17;1.08;;;21.80;44.80;;;;;;5127308;27;46546;-70
2023/10/15 11:39:08;;;;;;;1.10;0.70;;;21.80;44.40;;;;;;5127683;27;45155;-70
2023/10/15 11:41:38;;;;;;;2.33;0.90;;;21.70;44.40;;;;;;5127663;27;45404;-69
2023/10/15 11:44:06;;;;;;;4.13;0.80;;;21.60;44.60;;;;;;5127835;27;45291;-69
2023/10/15 11:46:36;;;;;;;2.45;0.52;;;21.60;44.80;;;;;;5127168;27;46566;-70
2023/10/15 11:49:03;;;;;;;2.58;0.82;;;21.50;44.90;;;;;;5127215;27;45240;-70
2023/10/15 11:51:30;;;;;;;0.70;0.70;;;21.40;45.10;;;;;;5127884;27;45297;-70
2023/10/15 11:54:00;;;;;;;0.60;0.60;;;21.40;45.00;;;;;;5127595;27;45524;-70
2023/10/15 11:56:29;;;;;;;1.05;0.80;;;21.40;45.00;;;;;;5127066;27;47171;-70
2023/10/15 11:58:57;;;;;;;0.70;0.65;;;21.40;44.90;;;;;;5127251;27;45316;-69
2023/10/15 12:01:24;;;;;;;0.65;0.65;;;21.60;44.90;;;;;;5127605;27;45290;-70
2023/10/15 12:03:52;;;;;;;2.88;0.80;;;21.80;44.40;;;;;;5127406;27;45380;-69
2023/10/15 12:06:19;;;;;;;0.60;0.60;;;22.00;44.10;;;;;;5126410;27;45638;-69
2023/10/15 12:08:46;;;;;;;1.40;0.82;;;22.10;43.70;;;;;;5127263;27;45313;-70
2023/10/15 12:11:14;;;;;;;0.95;0.77;;;22.20;43.40;;;;;;5127011;27;45286;-70
2023/10/15 12:13:43;;;;;;;1.70;0.82;;;22.30;43.20;;;;;;5128625;27;45283;-70
2023/10/15 12:16:11;;;;;;;0.98;0.70;;;22.10;43.40;;;;;;5130694;27;45352;-69
2023/10/15 12:18:39;;;;;;;1.95;0.93;;;22.00;43.80;;;;;;5130673;27;45313;-70
2023/10/15 12:21:07;;;;;;;1.67;0.90;;;21.80;44.00;;;;;;5130790;27;45473;-70
2023/10/15 12:23:34;;;;;;;1.17;0.70;;;21.70;44.00;;;;;;5130717;27;45322;-70
2023/10/15 12:26:03;;;;;;;2.35;0.68;;;21.60;44.00;;;;;;5130414;27;45307;-69
2023/10/15 12:28:30;;;;;;;2.00;1.00;;;21.80;43.80;;;;;;5130457;27;45301;-69
2023/10/15 12:30:57;;;;;;;0.85;0.70;;;22.00;43.50;;;;;;5130471;27;45297;-69
2023/10/15 12:33:23;;;;;;;1.90;0.77;;;22.00;43.40;;;;;;5130338;27;45295;-70
2023/10/15 12:35:51;;;;;;;2.67;0.80;;;21.80;43.50;;;;;;5130059;27;46345;-69
2023/10/15 12:38:26;;;;;;;1.13;0.60;;;21.70;43.60;;;;;;5130468;27;45323;-69
2023/10/15 12:40:55;;;;;;;1.33;0.70;;;21.70;43.50;;;;;;5130413;27;45433;-68
2023/10/15 12:43:21;;;;;;;2.75;0.60;;;21.90;43.30;;;;;;5130806;27;45362;-69
2023/10/15 12:45:52;;;;;;;0.90;0.60;;;22.00;42.70;;;;;;5130087;27;45428;-69
2023/10/15 12:48:19;;;;;;;0.55;0.55;;;22.20;42.60;;;;;;5130254;27;45261;-69
2023/10/15 12:50:46;;;;;;;1.05;0.70;;;22.30;42.30;;;;;;5129678;27;45299;-69
2023/10/15 12:53:13;;;;;;;2.92;0.77;;;22.40;42.00;;;;;;5130332;27;45430;-70
2023/10/15 12:55:42;;;;;;;1.70;0.70;;;22.50;41.90;;;;;;5129216;27;45381;-70
2023/10/15 12:58:10;;;;;;;2.88;0.90;;;22.60;41.70;;;;;;5129638;27;45510;-70